Latest Weather Observations for Cape Bruny AWS

IDT60801

Issued at 5:02 am EST Monday 26 August 2019 (issued every 10 minutes, with the page automatically refreshed every 10 minutes)

About weather observations | Map of weather stations | Latest weather observations for TAS | Other Formats
Station Details ID: 094198 Name: CAPE BRUNY (CAPE BRUNY) Lat: -43.49 Lon: 147.14 Height: 59.7 m
Data from the previous 72 hours. | See also: Recent months at Cape Bruny AWS
Date/Time
EST
Temp
°C
App
Temp
°C
Dew
Point
°C
Rel
Hum
%
Delta-T
°C
Wind Press
QNH
hPa
Press
MSL
hPa
Rain since
9am
mm
Dir  Spd
km/h
Gust
km/h
Spd
kts
Gust
kts
26/05:00am 8.8 3.0 4.4 74 1.9 NW 24 33 13 18 1017.1 1017.2 0.2
26/04:30am 9.1 2.9 4.3 72 2.1 NW 26 33 14 18 1017.0 1017.1 0.2
26/04:00am 9.0 4.1 5.0 76 1.8 WNW 20 30 11 16 1016.9 1017.0 0.2
26/03:30am 9.1 3.7 4.7 74 2.0 WNW 22 32 12 17 1016.9 1017.0 0.2
26/03:00am 9.0 3.7 5.2 77 1.7 WNW 22 33 12 18 1016.8 1016.9 0.2
26/02:30am 9.0 2.9 4.6 74 2.0 NW 26 33 14 18 1016.8 1016.9 0.2
26/02:00am 9.2 3.9 5.2 76 1.8 WNW 22 26 12 14 1017.1 1017.2 0.2
26/01:30am 9.1 4.2 4.9 75 1.9 WNW 20 28 11 15 1017.1 1017.2 0.2
26/01:00am 9.1 4.2 5.1 76 1.8 WNW 20 28 11 15 1017.1 1017.2 0.2
26/12:30am 9.1 3.3 4.5 73 2.0 WNW 24 33 13 18 1017.0 1017.1 0.2
26/12:00am 9.1 3.4 4.9 75 1.9 NW 24 30 13 16 1016.9 1017.0 0.2
 
Date/Time
EST
Temp
°C
App
Temp
°C
Dew
Point
°C
Rel
Hum
%
Delta-T
°C
Wind Press
QNH
hPa
Press
MSL
hPa
Rain since
9am
mm
Dir  Spd
km/h
Gust
km/h
Spd
kts
Gust
kts
25/11:30pm 9.2 3.9 4.8 74 2.0 NW 22 28 12 15 1016.8 1016.9 0.2
25/11:00pm 9.1 4.2 4.9 75 1.9 NW 20 28 11 15 1016.8 1016.9 0.2
25/10:30pm 9.1 3.4 5.1 76 1.8 NW 24 30 13 16 1016.9 1017.0 0.2
25/10:00pm 8.7 3.9 4.7 76 1.8 NW 19 26 10 14 1016.6 1016.7 0.2
25/09:30pm 8.9 3.5 4.7 75 1.9 NW 22 30 12 16 1016.6 1016.7 0.2
25/09:00pm 8.8 3.8 4.6 75 1.9 WNW 20 30 11 16 1016.4 1016.5 0.2
25/08:30pm 8.9 3.9 4.5 74 1.9 NW 20 26 11 14 1016.3 1016.4 0.2
25/08:00pm 8.7 3.3 4.3 74 1.9 NW 22 30 12 16 1016.1 1016.2 0.2
25/07:30pm 8.8 2.6 4.2 73 2.0 WNW 26 33 14 18 1015.9 1016.0 0.2
25/07:00pm 8.8 3.0 4.2 73 2.0 NW 24 32 13 17 1015.9 1016.0 0.2
25/06:30pm 8.6 4.1 4.4 75 1.9 NW 17 20 9 11 1015.7 1015.8 0.2
25/06:00pm 8.9 4.4 4.1 72 2.1 WNW 17 22 9 12 1015.4 1015.5 0.2
25/05:30pm 9.1 4.1 4.7 74 2.0 WNW 20 28 11 15 1015.2 1015.3 0.2
25/05:00pm 9.3 4.3 4.7 73 2.1 WNW 20 26 11 14 1015.0 1015.1 0.2
25/04:30pm 9.5 4.5 4.5 71 2.2 WNW 20 28 11 15 1014.7 1014.8 0.2
25/04:00pm 9.7 5.3 4.9 72 2.2 W 17 24 9 13 1014.4 1014.5 0.2
25/03:30pm 9.8 4.5 4.8 71 2.2 W 22 32 12 17 1014.3 1014.4 0.2
25/03:00pm 10.0 4.6 4.6 69 2.4 WNW 22 28 12 15 1014.1 1014.2 0.2
25/02:30pm 10.3 5.0 4.9 69 2.4 W 22 28 12 15 1014.0 1014.1 0.2
25/02:00pm 9.9 4.2 4.7 70 2.3 W 24 32 13 17 1013.9 1014.0 0.2
25/01:30pm 10.8 4.7 4.7 66 2.8 WSW 26 37 14 20 1013.8 1013.9 0.2
25/01:00pm 10.8 4.0 3.1 59 3.4 W 28 37 15 20 1013.9 1014.0 0.2
25/12:30pm 10.8 4.5 3.6 61 3.2 W 26 33 14 18 1013.9 1014.0 0.0
25/12:00pm 10.9 3.7 4.8 66 2.8 WSW 32 39 17 21 1013.8 1013.9 0.0
25/11:30am 9.6 3.0 4.2 69 2.4 W 28 39 15 21 1013.9 1014.0 0.0
25/11:00am 9.0 2.7 5.7 80 1.5 W 28 39 15 21 1013.8 1013.9 0.0
25/10:42am 8.4 0.5 4.2 75 1.8 W 35 57 19 31 1013.7 1013.8 0.0
25/10:30am 10.1 4.1 3.4 63 2.9 WNW 24 37 13 20 1013.5 1013.6 0.0
25/10:00am 9.0 2.8 4.2 72 2.1 WNW 26 44 14 24 1013.6 1013.7 0.0
25/09:49am 8.4 1.7 3.8 73 2.0 W 28 48 15 26 1013.5 1013.6 0.0
25/09:30am 8.9 1.9 4.3 73 2.0 WNW 30 39 16 21 1013.4 1013.5 0.0
25/09:00am 7.5 -0.7 4.5 81 1.3 W 37 46 20 25 1013.1 1013.2 25.8
25/08:47am 8.2 -0.3 3.1 70 2.2 W 37 61 20 33 1012.9 1013.0 25.8
25/08:30am 8.1 -0.2 2.1 66 2.5 W 35 41 19 22 1012.7 1012.8 25.6
25/08:00am 7.9 -0.7 2.4 68 2.3 W 37 44 20 24 1012.4 1012.5 25.6
25/07:30am 7.7 -0.9 2.6 70 2.1 W 37 46 20 25 1012.1 1012.2 25.6
25/07:00am 7.2 -1.7 3.1 75 1.7 W 39 46 21 25 1011.7 1011.8 25.6
25/06:39am 7.4 -0.6 3.6 77 1.6 W 35 54 19 29 1011.5 1011.6 25.6
25/06:30am 7.6 -1.4 2.3 69 2.2 W 39 54 21 29 1011.3 1011.4 25.6
25/06:00am 7.7 -1.3 2.4 69 2.2 W 39 50 21 27 1010.9 1011.0 25.6
25/05:30am 7.6 -3.2 2.1 68 2.3 WSW 48 63 26 34 1010.6 1010.7 25.6
25/05:01am 7.6 -2.2 3.5 75 1.8 W 44 63 24 34 1010.1 1010.2 25.6
25/05:00am 7.4 -2.8 3.1 74 1.8 W 46 63 25 34 1010.1 1010.2 25.6
25/04:30am 7.2 -4.0 3.8 79 1.5 WSW 52 72 28 39 1009.7 1009.8 25.6
25/04:00am 6.4 -5.0 3.0 79 1.4 WSW 52 70 28 38 1009.4 1009.5 25.6
25/03:52am 6.9 -3.3 3.3 78 1.5 W 46 65 25 35 1009.2 1009.3 25.6
25/03:30am 7.2 -1.6 3.8 79 1.5 W 39 50 21 27 1009.1 1009.2 25.6
25/03:18am 6.8 -3.0 3.2 78 1.5 W 44 63 24 34 1008.8 1008.9 25.6
25/03:00am 6.7 -5.1 3.0 77 1.6 W 54 67 29 36 1008.6 1008.7 25.6
25/02:30am 7.0 -2.7 2.9 75 1.7 WSW 43 56 23 30 1008.5 1008.6 25.6
25/02:00am 7.1 -2.4 4.1 81 1.3 WSW 43 57 23 31 1008.2 1008.3 25.4
25/01:30am 6.9 -2.8 3.9 81 1.3 WSW 44 67 24 36 1007.9 1008.0 25.4
25/01:00am 6.2 -4.7 3.7 84 1.1 WSW 50 76 27 41 1007.7 1007.8 25.0
25/12:32am 6.5 -3.0 4.0 84 1.1 WSW 43 61 23 33 1007.1 1007.2 24.8
25/12:30am 6.4 -3.3 3.7 83 1.1 WSW 44 61 24 33 1007.1 1007.2 24.8
25/12:03am 6.9 -1.8 4.0 82 1.2 SW 39 57 21 31 1006.6 1006.7 24.8
25/12:00am 6.9 -2.2 4.0 82 1.3 SW 41 57 22 31 1006.6 1006.7 24.8
 
Date/Time
EST
Temp
°C
App
Temp
°C
Dew
Point
°C
Rel
Hum
%
Delta-T
°C
Wind Press
QNH
hPa
Press
MSL
hPa
Rain since
9am
mm
Dir  Spd
km/h
Gust
km/h
Spd
kts
Gust
kts
24/11:34pm 6.7 -2.0 4.2 84 1.1 WSW 39 57 21 31 1006.2 1006.3 24.8
24/11:30pm 6.8 -2.6 4.5 85 1.0 WSW 43 57 23 31 1006.1 1006.2 24.8
24/11:00pm 7.0 -1.6 4.8 86 1.0 SW 39 57 21 31 1005.7 1005.8 24.4
24/10:34pm 6.9 -0.3 5.1 88 0.8 WSW 32 50 17 27 1005.4 1005.4 24.4
24/10:30pm 6.7 -0.1 4.9 88 0.8 WSW 30 39 16 21 1005.4 1005.4 24.4
24/10:13pm 6.5 -0.7 4.8 89 0.7 SW 32 50 17 27 1005.3 1005.3 24.2
24/10:00pm 6.7 -1.5 4.9 88 0.8 SW 37 50 20 27 1005.1 1005.1 23.6
24/09:30pm 6.4 -0.5 4.6 88 0.8 SW 30 44 16 24 1004.6 1004.6 22.6
24/09:00pm 6.3 1.3 4.5 88 0.8 SSW 20 32 11 17 1004.3 1004.3 21.6
24/08:30pm 6.0 0.2 4.5 90 0.6 SW 24 35 13 19 1004.0 1004.0 20.8
24/08:00pm 5.7 0.2 4.0 89 0.7 SW 22 32 12 17 1003.6 1003.6 19.8
24/07:30pm 5.9 0.8 4.2 89 0.7 S 20 30 11 16 1003.3 1003.3 18.0
24/07:00pm 5.5 0.5 3.7 88 0.8 SW 19 33 10 18 1003.2 1003.2 15.8
24/06:30pm 5.7 0.5 3.7 87 0.8 SW 20 44 11 24 1002.9 1002.9 12.8
24/06:04pm 6.1 -0.5 4.3 88 0.8 SSW 28 46 15 25 1002.5 1002.5 10.4
24/06:00pm 6.5 -0.7 5.0 90 0.7 S 32 46 17 25 1002.2 1002.2 10.0
24/05:30pm 7.0 -0.3 5.6 91 0.6 S 33 54 18 29 1002.0 1002.0 6.0
24/05:02pm 7.6 1.4 6.1 90 0.7 S 28 46 15 25 1000.8 1000.9 3.2
24/05:00pm 7.7 1.9 6.2 90 0.7 S 26 37 14 20 1000.9 1001.0 3.0
24/04:30pm 8.1 2.8 6.6 90 0.7 SE 24 39 13 21 1000.5 1000.6 2.6
24/04:00pm 8.2 2.8 6.5 89 0.8 S 24 35 13 19 1000.8 1000.9 1.4
24/03:30pm 8.7 3.1 7.0 89 0.8 SSE 26 33 14 18 1001.3 1001.4 1.4
24/03:00pm 9.0 3.8 7.3 89 0.8 SSE 24 32 13 17 1001.5 1001.6 1.4
24/02:30pm 9.4 5.6 7.5 88 0.9 SW 17 28 9 15 1001.7 1001.8 0.8
24/02:00pm 10.5 7.9 7.7 83 1.4 SSE 11 17 6 9 1000.8 1000.9 0.0
24/01:30pm 11.5 8.9 7.8 78 1.8 SSW 11 24 6 13 1001.2 1001.3 0.0
24/01:11pm 14.1 6.8 7.2 63 3.4 W 35 54 19 29 1001.2 1001.3 0.0
24/01:00pm 14.4 5.8 6.5 59 3.8 W 41 54 22 29 1000.9 1001.0 0.0
24/12:30pm 14.7 5.7 6.3 57 4.1 W 43 50 23 27 1001.0 1001.1 0.0
24/12:00pm 15.8 6.3 6.5 54 4.6 WNW 46 67 25 36 1001.0 1001.1 0.0
24/11:48am 15.5 8.3 5.7 52 4.7 WNW 33 61 18 33 1001.2 1001.3 0.0
24/11:30am 15.2 8.1 6.2 55 4.4 WNW 33 44 18 24 1001.7 1001.8 0.0
24/11:00am 14.2 9.7 6.3 59 3.8 NW 19 28 10 15 1002.2 1002.2 0.0
24/10:30am 14.4 8.6 6.3 58 3.9 NW 26 44 14 24 1002.3 1002.3 0.0
24/10:00am 13.6 8.2 6.2 61 3.6 NNW 24 39 13 21 1002.5 1002.5 0.0
24/09:30am 12.1 7.3 5.7 65 3.0 N 20 26 11 14 1003.1 1003.1 0.0
24/09:00am 11.9 7.2 5.3 64 3.1 NNE 19 26 10 14 1003.6 1003.6 0.0
24/08:30am 12.9 8.7 5.6 61 3.4 N 17 30 9 16 1003.7 1003.7 0.0
24/08:00am 11.8 7.2 5.4 65 3.0 NW 19 30 10 16 1004.3 1004.3 0.0
24/07:30am 11.2 6.3 5.3 67 2.7 NNW 20 30 11 16 1004.3 1004.3 0.0
24/07:00am 10.7 5.7 4.8 67 2.7 N 20 33 11 18 1004.0 1004.0 0.0
24/06:30am 10.7 5.3 4.6 66 2.8 N 22 35 12 19 1004.0 1004.0 0.0
24/06:00am 10.7 5.9 4.4 65 2.8 NNW 19 32 10 17 1004.1 1004.1 0.0
24/05:30am 10.3 5.3 4.5 67 2.6 NNW 20 32 11 17 1004.3 1004.3 0.0
24/05:00am 10.7 5.6 4.2 64 2.9 N 20 33 11 18 1004.6 1004.6 0.0
24/04:30am 10.3 6.6 4.5 67 2.6 N 13 19 7 10 1004.7 1004.7 0.0
24/04:00am 10.9 5.9 4.4 64 2.9 NNW 20 33 11 18 1005.0 1005.0 0.0
24/03:30am 11.0 5.3 4.7 65 2.9 NNW 24 33 13 18 1005.0 1005.0 0.0
24/03:00am 10.6 5.9 5.2 69 2.5 NNW 19 32 10 17 1005.4 1005.4 0.0
24/02:30am 10.5 6.9 4.9 68 2.5 N 13 20 7 11 1005.9 1006.0 0.0
24/02:00am 10.7 7.3 5.9 72 2.2 N 13 24 7 13 1006.3 1006.4 0.0
24/01:30am 10.5 7.9 5.9 73 2.1 NNE 9 15 5 8 1006.6 1006.7 0.0
24/01:00am 10.6 7.1 5.6 71 2.3 N 13 26 7 14 1006.6 1006.7 0.0
24/12:30am 10.7 6.9 5.7 71 2.3 N 15 24 8 13 1006.7 1006.8 0.0
24/12:00am 10.9 7.1 5.7 70 2.4 NNE 15 24 8 13 1007.5 1007.6 0.0
 
Date/Time
EST
Temp
°C
App
Temp
°C
Dew
Point
°C
Rel
Hum
%
Delta-T
°C
Wind Press
QNH
hPa
Press
MSL
hPa
Rain since
9am
mm
Dir  Spd
km/h
Gust
km/h
Spd
kts
Gust
kts
23/11:30pm 11.0 7.5 5.3 68 2.6 N 13 22 7 12 1008.1 1008.2 0.0
23/11:00pm 11.1 7.9 5.2 67 2.7 N 11 17 6 9 1008.4 1008.5 0.0
23/10:30pm 11.2 7.6 5.1 66 2.8 NNW 13 24 7 13 1008.4 1008.5 0.0
23/10:00pm 10.9 7.3 5.0 67 2.7 NNW 13 19 7 10 1008.6 1008.7 0.0
23/09:30pm 11.1 7.8 4.8 65 2.9 N 11 17 6 9 1009.0 1009.1 0.0
23/09:00pm 10.7 6.3 4.8 67 2.7 NNW 17 20 9 11 1009.0 1009.1 0.0
23/08:30pm 10.7 5.8 5.0 68 2.6 NNW 20 26 11 14 1009.2 1009.3 0.0
23/08:00pm 11.2 5.9 4.9 65 2.9 NW 22 32 12 17 1009.2 1009.3 0.0
23/07:30pm 10.7 5.9 4.6 66 2.8 NW 19 24 10 13 1009.5 1009.6 0.0
23/07:00pm 11.0 5.8 5.5 69 2.5 NW 22 26 12 14 1009.5 1009.6 0.0
23/06:30pm 11.3 5.4 5.6 68 2.6 WNW 26 35 14 19 1009.6 1009.7 0.0
23/06:00pm 11.6 6.0 5.5 66 2.8 WNW 24 32 13 17 1009.4 1009.5 0.0
23/05:30pm 11.9 5.2 5.5 65 3.0 WNW 30 37 16 20 1009.4 1009.5 0.0
23/05:00pm 12.8 4.6 4.5 57 3.8 WNW 37 48 20 26 1009.5 1009.6 0.0
23/04:30pm 13.6 6.6 4.2 53 4.3 WNW 30 39 16 21 1009.7 1009.8 0.0
23/04:00pm 13.0 6.7 3.9 54 4.1 WNW 26 39 14 21 1009.9 1010.0 0.0
23/03:30pm 14.3 7.9 5.1 54 4.3 WNW 28 37 15 20 1010.1 1010.2 0.0
23/03:29pm 14.2 7.9 5.8 57 4.0 WNW 28 37 15 20 1010.1 1010.2 0.0
23/03:00pm 15.3 11.8 5.5 52 4.7 WNW 13 17 7 9 1010.6 1010.7 0.0
23/02:30pm 15.6 12.4 4.9 49 5.1 NW 11 17 6 9 1011.0 1011.1 0.0
23/02:00pm 15.6 11.4 4.0 46 5.4 NNW 15 20 8 11 1011.4 1011.5 0.0
23/01:30pm 14.8 10.1 5.1 52 4.6 NNW 19 28 10 15 1011.8 1011.9 0.0
23/01:00pm 11.7 6.2 4.0 59 3.5 N 22 32 12 17 1012.4 1012.5 0.0
23/12:30pm 14.0 8.6 4.3 52 4.5 NNW 22 30 12 16 1012.9 1013.0 0.0
23/12:00pm 13.0 4.6 3.7 53 4.2 NW 37 48 20 26 1013.1 1013.2 0.0
23/11:50am 13.0 5.5 3.7 53 4.2 NW 32 44 17 24 1013.4 1013.5 0.0
23/11:30am 13.3 8.5 4.5 55 4.0 NNW 19 26 10 14 1014.1 1014.2 0.0
23/11:00am 12.8 8.2 3.7 54 4.1 N 17 30 9 16 1014.8 1014.9 0.0
23/10:30am 11.4 6.0 2.7 55 3.8 NNW 20 30 11 16 1015.4 1015.5 0.0
23/10:00am 10.5 5.3 2.4 57 3.5 NW 19 30 10 16 1015.6 1015.7 0.0
23/09:30am 10.3 5.8 2.4 58 3.4 NNW 15 20 8 11 1016.3 1016.4 0.0
23/09:00am 9.4 2.9 2.5 62 2.9 WNW 26 39 14 21 1016.4 1016.5 1.0
23/08:54am 9.3 2.4 2.6 63 2.8 WNW 28 46 15 25 1016.5 1016.6 1.0
23/08:30am 8.4 2.5 1.8 63 2.7 NW 22 33 12 18 1016.7 1016.8 1.0
23/08:00am 7.6 2.6 1.5 65 2.5 NNW 17 22 9 12 1017.0 1017.1 1.0
23/07:30am 7.0 1.7 1.7 69 2.2 NNW 19 26 10 14 1016.8 1016.9 1.0
23/07:00am 6.7 1.1 1.0 67 2.3 NNW 20 32 11 17 1016.9 1017.0 1.0
23/06:30am 6.1 1.1 1.2 71 2.0 NNW 17 32 9 17 1016.9 1017.0 1.0
23/06:00am 6.5 0.9 1.0 68 2.2 NNW 20 28 11 15 1017.1 1017.2 1.0
23/05:30am 6.1 1.5 1.4 72 1.9 N 15 28 8 15 1017.2 1017.3 1.0

Other formats

Comma delimited format used in spreadsheet applications
http://www.bom.gov.au/fwo/IDT60801/IDT60801.95967.axf

JavaScript Object Notation format (JSON) in row-major order
http://www.bom.gov.au/fwo/IDT60801/IDT60801.95967.json

Data quality

Most of these data are generated automatically and are frequently updated. Quality checks on data are not normally performed. It is possible for incorrect values to appear. Refer to information at About Latest Weather Observations and please check the disclaimer before using these data.